sensor_id;sensor_type;location;lat;lon;timestamp;pressure;altitude;pressure_sealevel;temperature;humidity
15634;BME280;14654;48.898;8.308;2024-01-30T00:00:52;101677.56;;;2.02;100.00
15634;BME280;14654;48.898;8.308;2024-01-30T00:03:18;101674.03;;;2.00;100.00
15634;BME280;14654;48.898;8.308;2024-01-30T00:05:43;101674.72;;;1.95;100.00
15634;BME280;14654;48.898;8.308;2024-01-30T00:08:09;101671.91;;;1.91;100.00
15634;BME280;14654;48.898;8.308;2024-01-30T00:10:34;101686.22;;;1.87;100.00
15634;BME280;14654;48.898;8.308;2024-01-30T00:12:59;101678.41;;;1.84;100.00
15634;BME280;14654;48.898;8.308;2024-01-30T00:15:24;101678.28;;;1.81;100.00
15634;BME280;14654;48.898;8.308;2024-01-30T00:17:50;101678.28;;;1.81;100.00
15634;BME280;14654;48.898;8.308;2024-01-30T00:20:17;101679.94;;;1.80;100.00
15634;BME280;14654;48.898;8.308;2024-01-30T00:22:43;101682.53;;;1.82;100.00
15634;BME280;14654;48.898;8.308;2024-01-30T00:25:08;101678.34;;;1.82;100.00
15634;BME280;14654;48.898;8.308;2024-01-30T00:27:33;101683.50;;;1.84;100.00
15634;BME280;14654;48.898;8.308;2024-01-30T00:29:59;101690.31;;;1.83;100.00
15634;BME280;14654;48.898;8.308;2024-01-30T00:32:24;101691.16;;;1.84;100.00
15634;BME280;14654;48.898;8.308;2024-01-30T00:34:49;101682.72;;;1.85;100.00
15634;BME280;14654;48.898;8.308;2024-01-30T00:37:15;101691.25;;;1.86;100.00
15634;BME280;14654;48.898;8.308;2024-01-30T00:39:40;101691.16;;;1.84;100.00
15634;BME280;14654;48.898;8.308;2024-01-30T00:42:05;101693.72;;;1.84;100.00
15634;BME280;14654;48.898;8.308;2024-01-30T00:44:30;101695.41;;;1.83;100.00
15634;BME280;14654;48.898;8.308;2024-01-30T00:46:56;101699.56;;;1.81;100.00
15634;BME280;14654;48.898;8.308;2024-01-30T00:49:21;101685.78;;;1.78;100.00
15634;BME280;14654;48.898;8.308;2024-01-30T00:51:46;101692.47;;;1.76;100.00
15634;BME280;14654;48.898;8.308;2024-01-30T00:54:12;101688.97;;;1.74;100.00
15634;BME280;14654;48.898;8.308;2024-01-30T00:56:37;101687.22;;;1.73;100.00
15634;BME280;14654;48.898;8.308;2024-01-30T00:59:02;101691.44;;;1.72;100.00
15634;BME280;14654;48.898;8.308;2024-01-30T01:01:28;101693.22;;;1.73;100.00
15634;BME280;14654;48.898;8.308;2024-01-30T01:03:53;101688.91;;;1.72;100.00
15634;BME280;14654;48.898;8.308;2024-01-30T01:06:19;101693.22;;;1.73;100.00
15634;BME280;14654;48.898;8.308;2024-01-30T01:08:44;101691.19;;;1.67;100.00
15634;BME280;14654;48.898;8.308;2024-01-30T01:11:10;101692.94;;;1.68;100.00
15634;BME280;14654;48.898;8.308;2024-01-30T01:13:35;101691.34;;;1.71;100.00
15634;BME280;14654;48.898;8.308;2024-01-30T01:16:00;101693.13;;;1.72;100.00
15634;BME280;14654;48.898;8.308;2024-01-30T01:18:26;101688.09;;;1.73;100.00
15634;BME280;14654;48.898;8.308;2024-01-30T01:20:52;101689.03;;;1.75;100.00
15634;BME280;14654;48.898;8.308;2024-01-30T01:23:17;101688.22;;;1.76;100.00
15634;BME280;14654;48.898;8.308;2024-01-30T01:25:43;101684.88;;;1.77;100.00
15634;BME280;14654;48.898;8.308;2024-01-30T01:28:08;101684.31;;;1.83;100.00
15634;BME280;14654;48.898;8.308;2024-01-30T01:30:33;101681.75;;;1.83;100.00
15634;BME280;14654;48.898;8.308;2024-01-30T01:32:59;101679.28;;;1.85;100.00
15634;BME280;14654;48.898;8.308;2024-01-30T01:35:27;101678.41;;;1.84;100.00
15634;BME280;14654;48.898;8.308;2024-01-30T01:37:53;101677.53;;;1.83;100.00
15634;BME280;14654;48.898;8.308;2024-01-30T01:40:24;101675.03;;;1.85;100.00
15634;BME280;14654;48.898;8.308;2024-01-30T01:42:50;101674.03;;;1.81;100.00
15634;BME280;14654;48.898;8.308;2024-01-30T01:45:17;101672.22;;;1.79;100.00
15634;BME280;14654;48.898;8.308;2024-01-30T01:47:43;101666.22;;;1.78;100.00
15634;BME280;14654;48.898;8.308;2024-01-30T01:50:12;101665.41;;;1.79;100.00
15634;BME280;14654;48.898;8.308;2024-01-30T01:52:39;101663.66;;;1.78;100.00
15634;BME280;14654;48.898;8.308;2024-01-30T01:55:05;101655.03;;;1.76;100.00
15634;BME280;14654;48.898;8.308;2024-01-30T01:57:31;101664.25;;;1.73;100.00
15634;BME280;14654;48.898;8.308;2024-01-30T01:59:57;101664.19;;;1.71;100.00
15634;BME280;14654;48.898;8.308;2024-01-30T02:02:23;101657.97;;;1.66;100.00
15634;BME280;14654;48.898;8.308;2024-01-30T02:04:49;101657.78;;;1.63;100.00
15634;BME280;14654;48.898;8.308;2024-01-30T02:07:15;101660.13;;;1.58;100.00
15634;BME280;14654;48.898;8.308;2024-01-30T02:09:40;101661.56;;;1.53;100.00
15634;BME280;14654;48.898;8.308;2024-01-30T02:12:06;101667.97;;;1.45;100.00
15634;BME280;14654;48.898;8.308;2024-01-30T02:14:31;101671.00;;;1.37;100.00
15634;BME280;14654;48.898;8.308;2024-01-30T02:16:57;101667.50;;;1.35;100.00
15634;BME280;14654;48.898;8.308;2024-01-30T02:19:22;101665.66;;;1.33;100.00
15634;BME280;14654;48.898;8.308;2024-01-30T02:21:47;101671.31;;;1.27;100.00
15634;BME280;14654;48.898;8.308;2024-01-30T02:24:13;101667.75;;;1.24;100.00
15634;BME280;14654;48.898;8.308;2024-01-30T02:26:38;101674.44;;;1.21;100.00
15634;BME280;14654;48.898;8.308;2024-01-30T02:29:03;101665.03;;;1.20;100.00
15634;BME280;14654;48.898;8.308;2024-01-30T02:31:29;101674.44;;;1.21;100.00
15634;BME280;14654;48.898;8.308;2024-01-30T02:33:54;101667.66;;;1.22;100.00
15634;BME280;14654;48.898;8.308;2024-01-30T02:36:19;101667.59;;;1.20;100.00
15634;BME280;14654;48.898;8.308;2024-01-30T02:38:44;101670.13;;;1.20;100.00
15634;BME280;14654;48.898;8.308;2024-01-30T02:41:11;101664.88;;;1.17;100.00
15634;BME280;14654;48.898;8.308;2024-01-30T02:43:36;101672.44;;;1.16;100.00
15634;BME280;14654;48.898;8.308;2024-01-30T02:46:02;101672.44;;;1.16;100.00
15634;BME280;14654;48.898;8.308;2024-01-30T02:48:27;101675.06;;;1.17;100.00
15634;BME280;14654;48.898;8.308;2024-01-30T02:50:52;101666.56;;;1.17;100.00
15634;BME280;14654;48.898;8.308;2024-01-30T02:53:18;101670.69;;;1.15;100.00
15634;BME280;14654;48.898;8.308;2024-01-30T02:55:43;101671.31;;;1.11;100.00
15634;BME280;14654;48.898;8.308;2024-01-30T02:58:08;101676.53;;;1.12;100.00
15634;BME280;14654;48.898;8.308;2024-01-30T03:00:34;101669.28;;;1.03;100.00
15634;BME280;14654;48.898;8.308;2024-01-30T03:02:59;101671.66;;;1.00;100.00
15634;BME280;14654;48.898;8.308;2024-01-30T03:05:24;101665.53;;;0.97;100.00
15634;BME280;14654;48.898;8.308;2024-01-30T03:07:50;101676.34;;;0.93;100.00
15634;BME280;14654;48.898;8.308;2024-01-30T03:10:15;101673.69;;;0.91;100.00
15634;BME280;14654;48.898;8.308;2024-01-30T03:12:40;101671.72;;;0.85;100.00
15634;BME280;14654;48.898;8.308;2024-01-30T03:15:06;101671.63;;;0.84;100.00
15634;BME280;14654;48.898;8.308;2024-01-30T03:17:31;101671.63;;;0.84;100.00
15634;BME280;14654;48.898;8.308;2024-01-30T03:19:57;101673.41;;;0.85;100.00
15634;BME280;14654;48.898;8.308;2024-01-30T03:22:22;101673.47;;;0.86;100.00
15634;BME280;14654;48.898;8.308;2024-01-30T03:24:48;101668.28;;;0.85;100.00
15634;BME280;14654;48.898;8.308;2024-01-30T03:27:13;101674.34;;;0.87;100.00
15634;BME280;14654;48.898;8.308;2024-01-30T03:29:38;101666.78;;;0.88;100.00
15634;BME280;14654;48.898;8.308;2024-01-30T03:32:04;101673.88;;;0.94;100.00
15634;BME280;14654;48.898;8.308;2024-01-30T03:34:30;101674.03;;;0.97;100.00
15634;BME280;14654;48.898;8.308;2024-01-30T03:36:55;101669.91;;;0.99;100.00
15634;BME280;14654;48.898;8.308;2024-01-30T03:39:20;101671.81;;;1.03;100.00
15634;BME280;14654;48.898;8.308;2024-01-30T03:41:45;101671.09;;;1.06;100.00
15634;BME280;14654;48.898;8.308;2024-01-30T03:44:11;101675.41;;;1.07;100.00
15634;BME280;14654;48.898;8.308;2024-01-30T03:46:36;101669.34;;;1.05;100.00
15634;BME280;14654;48.898;8.308;2024-01-30T03:49:02;101673.47;;;1.03;100.00
15634;BME280;14654;48.898;8.308;2024-01-30T03:51:27;101668.47;;;1.04;100.00
15634;BME280;14654;48.898;8.308;2024-01-30T03:53:52;101668.94;;;0.97;100.00
15634;BME280;14654;48.898;8.308;2024-01-30T03:56:18;101668.78;;;0.94;100.00
15634;BME280;14654;48.898;8.308;2024-01-30T03:58:43;101670.34;;;0.92;100.00
15634;BME280;14654;48.898;8.308;2024-01-30T04:01:13;101664.16;;;0.87;100.00
15634;BME280;14654;48.898;8.308;2024-01-30T04:03:39;101669.16;;;0.85;100.00
15634;BME280;14654;48.898;8.308;2024-01-30T04:06:04;101677.69;;;0.86;100.00
15634;BME280;14654;48.898;8.308;2024-01-30T04:08:29;101672.19;;;0.78;100.00
15634;BME280;14654;48.898;8.308;2024-01-30T04:10:55;101679.13;;;0.81;100.00
15634;BME280;14654;48.898;8.308;2024-01-30T04:13:20;101679.13;;;0.81;100.00
15634;BME280;14654;48.898;8.308;2024-01-30T04:15:45;101666.31;;;0.79;100.00
15634;BME280;14654;48.898;8.308;2024-01-30T04:18:11;101667.00;;;0.76;100.00
15634;BME280;14654;48.898;8.308;2024-01-30T04:20:36;101671.16;;;0.74;100.00
15634;BME280;14654;48.898;8.308;2024-01-30T04:23:01;101671.06;;;0.73;100.00
15634;BME280;14654;48.898;8.308;2024-01-30T04:25:27;101674.94;;;0.66;100.00
15634;BME280;14654;48.898;8.308;2024-01-30T04:27:52;101668.19;;;0.67;100.00
15634;BME280;14654;48.898;8.308;2024-01-30T04:30:17;101668.28;;;0.68;100.00
15634;BME280;14654;48.898;8.308;2024-01-30T04:32:43;101670.03;;;0.69;100.00
15634;BME280;14654;48.898;8.308;2024-01-30T04:35:08;101669.31;;;0.72;100.00
15634;BME280;14654;48.898;8.308;2024-01-30T04:37:34;101677.13;;;0.75;100.00
15634;BME280;14654;48.898;8.308;2024-01-30T04:39:59;101669.81;;;0.81;100.00
15634;BME280;14654;48.898;8.308;2024-01-30T04:42:24;101672.25;;;0.80;100.00
15634;BME280;14654;48.898;8.308;2024-01-30T04:44:50;101670.75;;;0.83;100.00
15634;BME280;14654;48.898;8.308;2024-01-30T04:47:15;101665.50;;;0.80;100.00
15634;BME280;14654;48.898;8.308;2024-01-30T04:49:41;101675.84;;;0.83;100.00
15634;BME280;14654;48.898;8.308;2024-01-30T04:52:07;101666.53;;;0.84;100.00
15634;BME280;14654;48.898;8.308;2024-01-30T04:54:33;101663.19;;;0.85;100.00
15634;BME280;14654;48.898;8.308;2024-01-30T04:56:58;101665.91;;;0.88;100.00
15634;BME280;14654;48.898;8.308;2024-01-30T04:59:23;101662.56;;;0.89;100.00
15634;BME280;14654;48.898;8.308;2024-01-30T05:01:49;101666.06;;;0.91;100.00
15634;BME280;14654;48.898;8.308;2024-01-30T05:04:14;101668.69;;;0.93;100.00
15634;BME280;14654;48.898;8.308;2024-01-30T05:06:40;101676.34;;;0.93;100.00
15634;BME280;14654;48.898;8.308;2024-01-30T05:09:05;101670.47;;;0.94;100.00
15634;BME280;14654;48.898;8.308;2024-01-30T05:11:30;101675.63;;;0.95;100.00
15634;BME280;14654;48.898;8.308;2024-01-30T05:13:56;101677.31;;;0.95;100.00
15634;BME280;14654;48.898;8.308;2024-01-30T05:16:21;101675.63;;;0.95;100.00
15634;BME280;14654;48.898;8.308;2024-01-30T05:18:47;101678.09;;;0.94;100.00
15634;BME280;14654;48.898;8.308;2024-01-30T05:21:12;101675.31;;;0.89;100.00
15634;BME280;14654;48.898;8.308;2024-01-30T05:23:37;101681.09;;;0.86;100.00
15634;BME280;14654;48.898;8.308;2024-01-30T05:26:03;101682.78;;;0.86;100.00
15634;BME280;14654;48.898;8.308;2024-01-30T05:28:29;101681.03;;;0.85;100.00
15634;BME280;14654;48.898;8.308;2024-01-30T05:30:55;101683.41;;;0.82;100.00
15634;BME280;14654;48.898;8.308;2024-01-30T05:33:21;101679.91;;;0.80;100.00
15634;BME280;14654;48.898;8.308;2024-01-30T05:35:46;101689.00;;;0.74;100.00
15634;BME280;14654;48.898;8.308;2024-01-30T05:38:11;101682.22;;;0.75;100.00
15634;BME280;14654;48.898;8.308;2024-01-30T05:40:37;101686.53;;;0.76;100.00
15634;BME280;14654;48.898;8.308;2024-01-30T05:43:03;101692.56;;;0.78;100.00
15634;BME280;14654;48.898;8.308;2024-01-30T05:45:28;101692.75;;;0.81;100.00
15634;BME280;14654;48.898;8.308;2024-01-30T05:47:53;101688.84;;;0.88;100.00
15634;BME280;14654;48.898;8.308;2024-01-30T05:50:19;101690.84;;;0.94;100.00
15634;BME280;14654;48.898;8.308;2024-01-30T05:52:45;101696.03;;;0.95;100.00
15634;BME280;14654;48.898;8.308;2024-01-30T05:55:11;101700.94;;;0.92;100.00
15634;BME280;14654;48.898;8.308;2024-01-30T05:57:37;101703.34;;;0.89;100.00
15634;BME280;14654;48.898;8.308;2024-01-30T06:00:04;101702.28;;;0.85;100.00
15634;BME280;14654;48.898;8.308;2024-01-30T06:02:29;101702.16;;;0.82;100.00
15634;BME280;14654;48.898;8.308;2024-01-30T06:04:54;101708.72;;;0.79;100.00
15634;BME280;14654;48.898;8.308;2024-01-30T06:07:20;101705.09;;;0.73;100.00
15634;BME280;14654;48.898;8.308;2024-01-30T06:09:45;101709.03;;;0.68;100.00
15634;BME280;14654;48.898;8.308;2024-01-30T06:12:11;101698.69;;;0.65;100.00
15634;BME280;14654;48.898;8.308;2024-01-30T06:14:37;101708.00;;;0.65;100.00
15634;BME280;14654;48.898;8.308;2024-01-30T06:17:03;101697.56;;;0.60;100.00
15634;BME280;14654;48.898;8.308;2024-01-30T06:19:28;101693.09;;;0.56;100.00
15634;BME280;14654;48.898;8.308;2024-01-30T06:21:53;101697.47;;;0.58;100.00
15634;BME280;14654;48.898;8.308;2024-01-30T06:24:18;101699.28;;;0.61;100.00
15634;BME280;14654;48.898;8.308;2024-01-30T06:26:44;101693.41;;;0.62;100.00
15634;BME280;14654;48.898;8.308;2024-01-30T06:29:09;101691.81;;;0.64;100.00
15634;BME280;14654;48.898;8.308;2024-01-30T06:31:43;101690.25;;;0.66;100.00
15634;BME280;14654;48.898;8.308;2024-01-30T06:34:09;101696.13;;;0.65;100.00
15634;BME280;14654;48.898;8.308;2024-01-30T06:36:34;101696.91;;;0.64;100.00
15634;BME280;14654;48.898;8.308;2024-01-30T06:39:01;101690.97;;;0.64;100.00
15634;BME280;14654;48.898;8.308;2024-01-30T06:41:27;101691.03;;;0.65;100.00
15634;BME280;14654;48.898;8.308;2024-01-30T06:43:52;101693.69;;;0.67;100.00
15634;BME280;14654;48.898;8.308;2024-01-30T06:46:17;101693.75;;;0.68;100.00
15634;BME280;14654;48.898;8.308;2024-01-30T06:48:42;101688.59;;;0.67;100.00
15634;BME280;14654;48.898;8.308;2024-01-30T06:51:10;101694.63;;;0.69;100.00
15634;BME280;14654;48.898;8.308;2024-01-30T06:53:35;101696.38;;;0.70;100.00
15634;BME280;14654;48.898;8.308;2024-01-30T06:56:00;101693.81;;;0.70;100.00
15634;BME280;14654;48.898;8.308;2024-01-30T06:58:26;101691.19;;;0.68;100.00
15634;BME280;14654;48.898;8.308;2024-01-30T07:00:52;101697.09;;;0.67;100.00
15634;BME280;14654;48.898;8.308;2024-01-30T07:03:17;101697.88;;;0.66;100.00
15634;BME280;14654;48.898;8.308;2024-01-30T07:05:42;101702.13;;;0.66;100.00
15634;BME280;14654;48.898;8.308;2024-01-30T07:08:08;101697.03;;;0.66;100.00
15634;BME280;14654;48.898;8.308;2024-01-30T07:10:33;101700.19;;;0.62;100.00
15634;BME280;14654;48.898;8.308;2024-01-30T07:13:00;101706.88;;;0.59;100.00
15634;BME280;14654;48.898;8.308;2024-01-30T07:15:26;101706.78;;;0.58;100.00
15634;BME280;14654;48.898;8.308;2024-01-30T07:17:51;101710.13;;;0.57;100.00
15634;BME280;14654;48.898;8.308;2024-01-30T07:20:16;101706.69;;;0.56;100.00
15634;BME280;14654;48.898;8.308;2024-01-30T07:22:43;101713.88;;;0.64;100.00
15634;BME280;14654;48.898;8.308;2024-01-30T07:25:09;101719.16;;;0.67;100.00
15634;BME280;14654;48.898;8.308;2024-01-30T07:27:34;101710.00;;;0.70;100.00
15634;BME280;14654;48.898;8.308;2024-01-30T07:29:59;101717.09;;;0.76;100.00
15634;BME280;14654;48.898;8.308;2024-01-30T07:32:25;101723.34;;;0.81;100.00
15634;BME280;14654;48.898;8.308;2024-01-30T07:34:50;101724.53;;;0.88;100.00
15634;BME280;14654;48.898;8.308;2024-01-30T07:37:15;101736.81;;;0.95;100.00
15634;BME280;14654;48.898;8.308;2024-01-30T07:39:41;101717.59;;;1.02;100.00
15634;BME280;14654;48.898;8.308;2024-01-30T07:42:07;101732.53;;;1.11;100.00
15634;BME280;14654;48.898;8.308;2024-01-30T07:44:33;101728.00;;;1.21;100.00
15634;BME280;14654;48.898;8.308;2024-01-30T07:46:59;101729.13;;;1.27;100.00
15634;BME280;14654;48.898;8.308;2024-01-30T07:49:24;101726.25;;;1.37;100.00
15634;BME280;14654;48.898;8.308;2024-01-30T07:51:50;101724.41;;;1.51;100.00
15634;BME280;14654;48.898;8.308;2024-01-30T07:54:15;101727.38;;;1.59;100.00
15634;BME280;14654;48.898;8.308;2024-01-30T07:56:41;101726.88;;;1.66;100.00
15634;BME280;14654;48.898;8.308;2024-01-30T07:59:09;101728.28;;;1.77;100.00
15634;BME280;14654;48.898;8.308;2024-01-30T08:01:35;101727.84;;;1.86;100.00
15634;BME280;14654;48.898;8.308;2024-01-30T08:04:00;101732.66;;;1.96;100.00
15634;BME280;14654;48.898;8.308;2024-01-30T08:06:25;101731.31;;;2.05;100.00
15634;BME280;14654;48.898;8.308;2024-01-30T08:08:51;101729.16;;;2.12;100.00
15634;BME280;14654;48.898;8.308;2024-01-30T08:11:20;101736.28;;;2.20;100.00
15634;BME280;14654;48.898;8.308;2024-01-30T08:13:45;101740.28;;;2.31;100.00
15634;BME280;14654;48.898;8.308;2024-01-30T08:16:10;101744.22;;;2.42;100.00
15634;BME280;14654;48.898;8.308;2024-01-30T08:18:35;101737.72;;;2.49;100.00
15634;BME280;14654;48.898;8.308;2024-01-30T08:21:01;101747.44;;;2.56;100.00
15634;BME280;14654;48.898;8.308;2024-01-30T08:23:26;101746.09;;;2.65;100.00
15634;BME280;14654;48.898;8.308;2024-01-30T08:25:51;101744.84;;;2.74;100.00
15634;BME280;14654;48.898;8.308;2024-01-30T08:28:17;101746.22;;;2.86;100.00
15634;BME280;14654;48.898;8.308;2024-01-30T08:30:42;101751.09;;;2.99;100.00
15634;BME280;14654;48.898;8.308;2024-01-30T08:33:07;101745.72;;;3.13;100.00
15634;BME280;14654;48.898;8.308;2024-01-30T08:35:33;101753.97;;;3.25;100.00
15634;BME280;14654;48.898;8.308;2024-01-30T08:37:59;101756.19;;;3.37;100.00
15634;BME280;14654;48.898;8.308;2024-01-30T08:40:24;101755.81;;;3.47;100.00
15634;BME280;14654;48.898;8.308;2024-01-30T08:42:49;101758.69;;;3.55;100.00
15634;BME280;14654;48.898;8.308;2024-01-30T08:45:14;101753.91;;;3.63;100.00
15634;BME280;14654;48.898;8.308;2024-01-30T08:47:40;101761.03;;;3.70;100.00
15634;BME280;14654;48.898;8.308;2024-01-30T08:50:06;101768.97;;;3.76;100.00
15634;BME280;14654;48.898;8.308;2024-01-30T08:52:31;101763.31;;;3.84;100.00
15634;BME280;14654;48.898;8.308;2024-01-30T08:54:58;101758.38;;;3.88;100.00
15634;BME280;14654;48.898;8.308;2024-01-30T08:57:23;101759.44;;;3.93;100.00
15634;BME280;14654;48.898;8.308;2024-01-30T08:59:48;101757.16;;;4.00;100.00
15634;BME280;14654;48.898;8.308;2024-01-30T09:02:14;101756.53;;;4.05;100.00
15634;BME280;14654;48.898;8.308;2024-01-30T09:04:41;101754.28;;;4.13;100.00
15634;BME280;14654;48.898;8.308;2024-01-30T09:07:08;101752.91;;;4.21;100.00
15634;BME280;14654;48.898;8.308;2024-01-30T09:09:34;101754.19;;;4.33;100.00
15634;BME280;14654;48.898;8.308;2024-01-30T09:11:59;101746.91;;;4.42;100.00
15634;BME280;14654;48.898;8.308;2024-01-30T09:14:29;101746.94;;;4.43;100.00
15634;BME280;14654;48.898;8.308;2024-01-30T09:16:55;101751.25;;;4.45;100.00
15634;BME280;14654;48.898;8.308;2024-01-30T09:19:20;101753.91;;;4.46;100.00
15634;BME280;14654;48.898;8.308;2024-01-30T09:21:45;101750.78;;;4.55;100.00
15634;BME280;14654;48.898;8.308;2024-01-30T09:24:11;101755.53;;;4.67;100.00
15634;BME280;14654;48.898;8.308;2024-01-30T09:26:36;101766.19;;;4.76;100.00
15634;BME280;14654;48.898;8.308;2024-01-30T09:29:01;101762.25;;;4.86;100.00
15634;BME280;14654;48.898;8.308;2024-01-30T09:31:27;101764.28;;;4.95;100.00
15634;BME280;14654;48.898;8.308;2024-01-30T09:33:52;101759.53;;;5.04;100.00
15634;BME280;14654;48.898;8.308;2024-01-30T09:36:19;101768.44;;;5.14;100.00
15634;BME280;14654;48.898;8.308;2024-01-30T09:38:45;101772.22;;;5.24;100.00
15634;BME280;14654;48.898;8.308;2024-01-30T09:41:10;101760.66;;;5.35;100.00
15634;BME280;14654;48.898;8.308;2024-01-30T09:43:37;101756.00;;;5.49;100.00
15634;BME280;14654;48.898;8.308;2024-01-30T09:46:03;101755.53;;;5.59;100.00
15634;BME280;14654;48.898;8.308;2024-01-30T09:48:30;101759.34;;;5.71;100.00
15634;BME280;14654;48.898;8.308;2024-01-30T09:50:57;101755.44;;;5.82;100.00
15634;BME280;14654;48.898;8.308;2024-01-30T09:53:23;101755.81;;;5.93;100.00
15634;BME280;14654;48.898;8.308;2024-01-30T09:55:50;101757.91;;;6.03;100.00
15634;BME280;14654;48.898;8.308;2024-01-30T09:58:16;101760.75;;;6.13;100.00
15634;BME280;14654;48.898;8.308;2024-01-30T10:00:41;101755.94;;;6.22;100.00
15634;BME280;14654;48.898;8.308;2024-01-30T10:03:08;101755.41;;;6.32;100.00
15634;BME280;14654;48.898;8.308;2024-01-30T10:05:35;101765.19;;;6.43;100.00
15634;BME280;14654;48.898;8.308;2024-01-30T10:08:06;101763.81;;;6.54;100.00
15634;BME280;14654;48.898;8.308;2024-01-30T10:10:31;101763.31;;;6.66;100.00
15634;BME280;14654;48.898;8.308;2024-01-30T10:12:57;101773.94;;;6.77;100.00
15634;BME280;14654;48.898;8.308;2024-01-30T10:15:22;101777.75;;;6.90;100.00
15634;BME280;14654;48.898;8.308;2024-01-30T10:17:48;101772.03;;;7.00;100.00
15634;BME280;14654;48.898;8.308;2024-01-30T10:20:14;101765.47;;;7.10;100.00
15634;BME280;14654;48.898;8.308;2024-01-30T10:22:40;101770.97;;;7.22;100.00
15634;BME280;14654;48.898;8.308;2024-01-30T10:25:09;101780.75;;;7.34;100.00
15634;BME280;14654;48.898;8.308;2024-01-30T10:27:34;101783.59;;;7.43;100.00
15634;BME280;14654;48.898;8.308;2024-01-30T10:30:00;101787.38;;;7.56;100.00
15634;BME280;14654;48.898;8.308;2024-01-30T10:32:25;101791.91;;;7.65;100.00
15634;BME280;14654;48.898;8.308;2024-01-30T10:34:51;101785.31;;;7.75;100.00
15634;BME280;14654;48.898;8.308;2024-01-30T10:37:17;101792.47;;;7.85;100.00
15634;BME280;14654;48.898;8.308;2024-01-30T10:39:45;101775.56;;;7.97;100.00
15634;BME280;14654;48.898;8.308;2024-01-30T10:42:17;101773.22;;;8.06;100.00
15634;BME280;14654;48.898;8.308;2024-01-30T10:44:48;101760.63;;;8.18;100.00
15634;BME280;14654;48.898;8.308;2024-01-30T10:47:27;101768.75;;;8.34;100.00
15634;BME280;14654;48.898;8.308;2024-01-30T10:49:54;101774.94;;;8.42;100.00
15634;BME280;14654;48.898;8.308;2024-01-30T10:52:19;101762.19;;;8.47;100.00
15634;BME280;14654;48.898;8.308;2024-01-30T10:54:46;101766.66;;;8.52;100.00
15634;BME280;14654;48.898;8.308;2024-01-30T10:57:13;101769.34;;;8.59;100.00
15634;BME280;14654;48.898;8.308;2024-01-30T10:59:41;101763.44;;;8.63;100.00
15634;BME280;14654;48.898;8.308;2024-01-30T11:02:07;101772.22;;;8.71;100.00
15634;BME280;14654;48.898;8.308;2024-01-30T11:04:41;101754.31;;;8.79;100.00
15634;BME280;14654;48.898;8.308;2024-01-30T11:07:15;101750.94;;;8.81;100.00
15634;BME280;14654;48.898;8.308;2024-01-30T11:09:48;101749.28;;;8.85;100.00
15634;BME280;14654;48.898;8.308;2024-01-30T11:12:13;101738.94;;;8.83;100.00
15634;BME280;14654;48.898;8.308;2024-01-30T11:14:39;101751.84;;;8.83;100.00
15634;BME280;14654;48.898;8.308;2024-01-30T11:17:05;101748.38;;;8.83;100.00
15634;BME280;14654;48.898;8.308;2024-01-30T11:19:32;101744.88;;;8.79;100.00
15634;BME280;14654;48.898;8.308;2024-01-30T11:21:58;101746.53;;;8.77;100.00
15634;BME280;14654;48.898;8.308;2024-01-30T11:24:24;101740.53;;;8.77;100.00
15634;BME280;14654;48.898;8.308;2024-01-30T11:26:56;101734.50;;;8.78;100.00
15634;BME280;14654;48.898;8.308;2024-01-30T11:29:27;101734.50;;;8.78;100.00
15634;BME280;14654;48.898;8.308;2024-01-30T11:31:58;101739.63;;;8.76;100.00
15634;BME280;14654;48.898;8.308;2024-01-30T11:34:23;101741.47;;;8.82;100.00
15634;BME280;14654;48.898;8.308;2024-01-30T11:36:52;101739.81;;;8.85;100.00
15634;BME280;14654;48.898;8.308;2024-01-30T11:39:20;101739.28;;;8.99;100.00
15634;BME280;14654;48.898;8.308;2024-01-30T11:41:47;101737.00;;;9.14;100.00
15634;BME280;14654;48.898;8.308;2024-01-30T11:44:15;101734.75;;;9.33;100.00
15634;BME280;14654;48.898;8.308;2024-01-30T11:46:40;101739.38;;;9.48;100.00
15634;BME280;14654;48.898;8.308;2024-01-30T11:49:06;101731.06;;;9.65;100.00
15634;BME280;14654;48.898;8.308;2024-01-30T11:51:31;101732.06;;;9.73;100.00
15634;BME280;14654;48.898;8.308;2024-01-30T11:53:57;101736.53;;;9.82;100.00
15634;BME280;14654;48.898;8.308;2024-01-30T11:56:24;101727.97;;;9.86;100.00
15634;BME280;14654;48.898;8.308;2024-01-30T11:58:49;101737.50;;;9.88;100.00
15634;BME280;14654;48.898;8.308;2024-01-30T12:01:16;101725.47;;;9.90;100.00
15634;BME280;14654;48.898;8.308;2024-01-30T12:03:42;101720.38;;;9.95;100.00
15634;BME280;14654;48.898;8.308;2024-01-30T12:06:07;101719.66;;;10.04;100.00
15634;BME280;14654;48.898;8.308;2024-01-30T12:08:33;101717.25;;;10.15;100.00
15634;BME280;14654;48.898;8.308;2024-01-30T12:10:58;101706.94;;;10.18;100.00
15634;BME280;14654;48.898;8.308;2024-01-30T12:13:25;101710.50;;;10.25;100.00
15634;BME280;14654;48.898;8.308;2024-01-30T12:15:51;101696.72;;;10.27;100.00
15634;BME280;14654;48.898;8.308;2024-01-30T12:18:18;101695.00;;;10.26;100.00
15634;BME280;14654;48.898;8.308;2024-01-30T12:20:44;101686.44;;;10.32;100.00
15634;BME280;14654;48.898;8.308;2024-01-30T12:23:11;101674.41;;;10.34;100.00
15634;BME280;14654;48.898;8.308;2024-01-30T12:25:37;101672.78;;;10.39;100.00
15634;BME280;14654;48.898;8.308;2024-01-30T12:28:03;101672.00;;;10.45;100.00
15634;BME280;14654;48.898;8.308;2024-01-30T12:30:29;101680.78;;;10.55;100.00
15634;BME280;14654;48.898;8.308;2024-01-30T12:32:55;101687.75;;;10.60;100.00
15634;BME280;14654;48.898;8.308;2024-01-30T12:35:20;101681.78;;;10.66;100.00
15634;BME280;14654;48.898;8.308;2024-01-30T12:37:47;101682.72;;;10.73;100.00
15634;BME280;14654;48.898;8.308;2024-01-30T12:40:14;101679.25;;;10.71;100.00
15634;BME280;14654;48.898;8.308;2024-01-30T12:42:45;101684.41;;;10.71;100.00